DXB weather

Dubai International Airport
Dubai, Dubai Emirate, United Arab Emirates

Public forecast

Using degrees Celsius for public forecast. Weather courtesy of forecast.io.

METAR (pilot weather report)

Retrieved 2018/04/22 19:00 UTC (14 minutes ago):

OMDB 221900Z 09007KT 060V160 CAVOK 32/07 Q1010 NOSIG

TAF (pilot weather forecast)

Retrieved 2018/04/22 18:00 UTC (1 hour ago):

TAF OMDB 221659Z 2218/2400 08007KT CAVOK BECMG 2302/2304 17012KT PROB30 TEMPO 2304/2307 4000 DU BECMG 2309/2311 35014KT BECMG 2316/2318 09005KT